sensor_id;sensor_type;location;lat;lon;timestamp;temperature;humidity
18229;DHT22;9239;50.932;3.142;2023-07-13T00:01:05;16.80;99.90
18229;DHT22;9239;50.932;3.142;2023-07-13T00:03:34;16.80;99.90
18229;DHT22;9239;50.932;3.142;2023-07-13T00:06:02;16.80;99.90
18229;DHT22;9239;50.932;3.142;2023-07-13T00:08:31;16.80;99.90
18229;DHT22;9239;50.932;3.142;2023-07-13T00:10:59;16.80;99.90
18229;DHT22;9239;50.932;3.142;2023-07-13T00:13:26;16.80;99.90
18229;DHT22;9239;50.932;3.142;2023-07-13T00:15:53;16.80;99.90
18229;DHT22;9239;50.932;3.142;2023-07-13T00:18:20;16.80;99.90
18229;DHT22;9239;50.932;3.142;2023-07-13T00:20:49;16.80;99.90
18229;DHT22;9239;50.932;3.142;2023-07-13T00:23:15;16.70;99.90
18229;DHT22;9239;50.932;3.142;2023-07-13T00:25:44;16.80;99.90
18229;DHT22;9239;50.932;3.142;2023-07-13T00:28:11;16.70;99.90
18229;DHT22;9239;50.932;3.142;2023-07-13T00:30:38;16.70;99.90
18229;DHT22;9239;50.932;3.142;2023-07-13T00:33:05;16.70;99.90
18229;DHT22;9239;50.932;3.142;2023-07-13T00:35:33;16.70;99.90
18229;DHT22;9239;50.932;3.142;2023-07-13T00:38:02;16.70;99.90
18229;DHT22;9239;50.932;3.142;2023-07-13T00:40:29;16.60;99.90
18229;DHT22;9239;50.932;3.142;2023-07-13T00:42:57;16.60;99.90
18229;DHT22;9239;50.932;3.142;2023-07-13T00:48:32;16.60;99.90
18229;DHT22;9239;50.932;3.142;2023-07-13T00:51:01;16.50;99.90
18229;DHT22;9239;50.932;3.142;2023-07-13T00:53:31;16.60;99.90
18229;DHT22;9239;50.932;3.142;2023-07-13T00:55:59;16.50;99.90
18229;DHT22;9239;50.932;3.142;2023-07-13T00:58:27;16.50;99.90
18229;DHT22;9239;50.932;3.142;2023-07-13T01:00:54;16.50;99.90
18229;DHT22;9239;50.932;3.142;2023-07-13T01:03:21;16.50;99.90
18229;DHT22;9239;50.932;3.142;2023-07-13T01:05:50;16.50;99.90
18229;DHT22;9239;50.932;3.142;2023-07-13T01:08:19;16.50;99.90
18229;DHT22;9239;50.932;3.142;2023-07-13T01:10:56;16.50;99.90
18229;DHT22;9239;50.932;3.142;2023-07-13T01:13:23;16.50;99.90
18229;DHT22;9239;50.932;3.142;2023-07-13T01:15:51;16.50;99.90
18229;DHT22;9239;50.932;3.142;2023-07-13T01:18:21;16.40;99.90
18229;DHT22;9239;50.932;3.142;2023-07-13T01:20:53;16.50;99.90
18229;DHT22;9239;50.932;3.142;2023-07-13T01:23:20;16.40;99.90
18229;DHT22;9239;50.932;3.142;2023-07-13T01:25:47;16.40;99.90
18229;DHT22;9239;50.932;3.142;2023-07-13T01:28:14;16.40;99.90
18229;DHT22;9239;50.932;3.142;2023-07-13T01:30:43;16.30;99.90
18229;DHT22;9239;50.932;3.142;2023-07-13T01:33:11;16.40;99.90
18229;DHT22;9239;50.932;3.142;2023-07-13T01:35:39;16.40;99.90
18229;DHT22;9239;50.932;3.142;2023-07-13T01:38:07;16.40;99.90
18229;DHT22;9239;50.932;3.142;2023-07-13T01:40:35;16.40;99.90
18229;DHT22;9239;50.932;3.142;2023-07-13T01:43:02;16.40;99.90
18229;DHT22;9239;50.932;3.142;2023-07-13T01:45:29;16.40;99.90
18229;DHT22;9239;50.932;3.142;2023-07-13T01:47:56;16.40;99.90
18229;DHT22;9239;50.932;3.142;2023-07-13T01:50:23;16.40;99.90
18229;DHT22;9239;50.932;3.142;2023-07-13T01:52:51;16.30;99.90
18229;DHT22;9239;50.932;3.142;2023-07-13T01:55:20;16.30;99.90
18229;DHT22;9239;50.932;3.142;2023-07-13T01:57:47;16.30;99.90
18229;DHT22;9239;50.932;3.142;2023-07-13T02:00:15;16.30;99.90
18229;DHT22;9239;50.932;3.142;2023-07-13T02:02:42;16.30;99.90
18229;DHT22;9239;50.932;3.142;2023-07-13T02:05:09;16.20;99.90
18229;DHT22;9239;50.932;3.142;2023-07-13T02:07:37;16.20;99.90
18229;DHT22;9239;50.932;3.142;2023-07-13T02:10:05;16.20;99.90
18229;DHT22;9239;50.932;3.142;2023-07-13T02:12:33;16.20;99.90
18229;DHT22;9239;50.932;3.142;2023-07-13T02:15:01;16.20;99.90
18229;DHT22;9239;50.932;3.142;2023-07-13T02:17:28;16.20;99.90
18229;DHT22;9239;50.932;3.142;2023-07-13T02:19:54;16.20;99.90
18229;DHT22;9239;50.932;3.142;2023-07-13T02:22:22;16.20;99.90
18229;DHT22;9239;50.932;3.142;2023-07-13T02:24:49;16.20;99.90
18229;DHT22;9239;50.932;3.142;2023-07-13T02:27:16;16.10;99.90
18229;DHT22;9239;50.932;3.142;2023-07-13T02:29:44;16.10;99.90
18229;DHT22;9239;50.932;3.142;2023-07-13T02:32:11;16.20;99.90
18229;DHT22;9239;50.932;3.142;2023-07-13T02:34:38;16.10;99.90
18229;DHT22;9239;50.932;3.142;2023-07-13T02:37:05;16.10;99.90
18229;DHT22;9239;50.932;3.142;2023-07-13T02:39:32;16.00;99.90
18229;DHT22;9239;50.932;3.142;2023-07-13T02:41:59;15.90;99.90
18229;DHT22;9239;50.932;3.142;2023-07-13T02:44:26;15.90;99.90
18229;DHT22;9239;50.932;3.142;2023-07-13T02:46:55;15.90;99.90
18229;DHT22;9239;50.932;3.142;2023-07-13T02:49:22;15.90;99.90
18229;DHT22;9239;50.932;3.142;2023-07-13T02:51:49;15.90;99.90
18229;DHT22;9239;50.932;3.142;2023-07-13T02:54:15;15.90;99.90
18229;DHT22;9239;50.932;3.142;2023-07-13T02:56:42;15.90;99.90
18229;DHT22;9239;50.932;3.142;2023-07-13T02:59:10;15.90;99.90
18229;DHT22;9239;50.932;3.142;2023-07-13T03:01:37;15.90;99.90
18229;DHT22;9239;50.932;3.142;2023-07-13T03:04:06;16.00;99.90
18229;DHT22;9239;50.932;3.142;2023-07-13T03:06:33;16.00;99.90
18229;DHT22;9239;50.932;3.142;2023-07-13T03:09:01;16.00;99.90
18229;DHT22;9239;50.932;3.142;2023-07-13T03:11:29;15.90;99.90
18229;DHT22;9239;50.932;3.142;2023-07-13T03:13:57;15.90;99.90
18229;DHT22;9239;50.932;3.142;2023-07-13T03:16:24;15.90;99.90
18229;DHT22;9239;50.932;3.142;2023-07-13T03:18:51;15.80;99.90
18229;DHT22;9239;50.932;3.142;2023-07-13T03:21:19;15.80;99.90
18229;DHT22;9239;50.932;3.142;2023-07-13T03:23:46;15.90;99.90
18229;DHT22;9239;50.932;3.142;2023-07-13T03:26:15;15.90;99.90
18229;DHT22;9239;50.932;3.142;2023-07-13T03:28:43;15.90;99.90
18229;DHT22;9239;50.932;3.142;2023-07-13T03:31:12;15.80;99.90
18229;DHT22;9239;50.932;3.142;2023-07-13T03:33:40;15.70;99.90
18229;DHT22;9239;50.932;3.142;2023-07-13T03:36:10;15.70;99.90
18229;DHT22;9239;50.932;3.142;2023-07-13T03:38:39;15.80;99.90
18229;DHT22;9239;50.932;3.142;2023-07-13T03:41:06;15.80;99.90
18229;DHT22;9239;50.932;3.142;2023-07-13T03:43:33;15.80;99.90
18229;DHT22;9239;50.932;3.142;2023-07-13T03:46:00;15.90;99.90
18229;DHT22;9239;50.932;3.142;2023-07-13T03:48:26;15.90;99.90
18229;DHT22;9239;50.932;3.142;2023-07-13T03:50:53;15.90;99.90
18229;DHT22;9239;50.932;3.142;2023-07-13T03:53:20;15.90;99.90
18229;DHT22;9239;50.932;3.142;2023-07-13T03:55:48;15.90;99.90
18229;DHT22;9239;50.932;3.142;2023-07-13T03:58:27;15.80;99.90
18229;DHT22;9239;50.932;3.142;2023-07-13T04:00:55;15.90;99.90
18229;DHT22;9239;50.932;3.142;2023-07-13T04:03:22;15.90;99.90
18229;DHT22;9239;50.932;3.142;2023-07-13T04:05:49;15.90;99.90
18229;DHT22;9239;50.932;3.142;2023-07-13T04:08:16;15.90;99.90
18229;DHT22;9239;50.932;3.142;2023-07-13T04:10:43;16.00;99.90
18229;DHT22;9239;50.932;3.142;2023-07-13T04:13:11;16.10;99.90
18229;DHT22;9239;50.932;3.142;2023-07-13T04:15:39;16.00;99.90
18229;DHT22;9239;50.932;3.142;2023-07-13T04:18:06;16.10;99.90
18229;DHT22;9239;50.932;3.142;2023-07-13T04:20:33;16.20;99.90
18229;DHT22;9239;50.932;3.142;2023-07-13T04:23:00;16.20;99.90
18229;DHT22;9239;50.932;3.142;2023-07-13T04:25:27;16.30;99.90
18229;DHT22;9239;50.932;3.142;2023-07-13T04:27:54;16.20;99.90
18229;DHT22;9239;50.932;3.142;2023-07-13T04:30:23;16.30;99.90
18229;DHT22;9239;50.932;3.142;2023-07-13T04:32:50;16.30;99.90
18229;DHT22;9239;50.932;3.142;2023-07-13T04:35:18;16.30;99.90
18229;DHT22;9239;50.932;3.142;2023-07-13T04:37:47;16.30;99.90
18229;DHT22;9239;50.932;3.142;2023-07-13T04:40:16;16.30;99.90
18229;DHT22;9239;50.932;3.142;2023-07-13T04:42:43;16.30;99.90
18229;DHT22;9239;50.932;3.142;2023-07-13T04:45:10;16.30;99.90
18229;DHT22;9239;50.932;3.142;2023-07-13T04:47:39;16.40;99.90
18229;DHT22;9239;50.932;3.142;2023-07-13T04:50:07;16.40;99.90
18229;DHT22;9239;50.932;3.142;2023-07-13T04:52:34;16.50;99.90
18229;DHT22;9239;50.932;3.142;2023-07-13T04:55:01;16.50;99.90
18229;DHT22;9239;50.932;3.142;2023-07-13T04:57:28;16.50;99.90
18229;DHT22;9239;50.932;3.142;2023-07-13T04:59:55;16.60;99.90
18229;DHT22;9239;50.932;3.142;2023-07-13T05:02:22;16.60;99.90
18229;DHT22;9239;50.932;3.142;2023-07-13T05:04:50;16.70;99.90
18229;DHT22;9239;50.932;3.142;2023-07-13T05:07:17;16.70;99.90
18229;DHT22;9239;50.932;3.142;2023-07-13T05:09:44;16.70;99.90
18229;DHT22;9239;50.932;3.142;2023-07-13T05:12:11;16.80;99.90
18229;DHT22;9239;50.932;3.142;2023-07-13T05:14:37;16.80;99.90
18229;DHT22;9239;50.932;3.142;2023-07-13T05:17:05;16.80;99.90
18229;DHT22;9239;50.932;3.142;2023-07-13T05:19:32;16.80;99.90
18229;DHT22;9239;50.932;3.142;2023-07-13T05:22:00;16.90;99.90
18229;DHT22;9239;50.932;3.142;2023-07-13T05:24:28;16.90;99.90
18229;DHT22;9239;50.932;3.142;2023-07-13T05:26:55;16.90;99.90
18229;DHT22;9239;50.932;3.142;2023-07-13T05:29:22;16.90;99.90
18229;DHT22;9239;50.932;3.142;2023-07-13T05:31:49;17.00;99.90
18229;DHT22;9239;50.932;3.142;2023-07-13T05:34:16;17.00;99.90
18229;DHT22;9239;50.932;3.142;2023-07-13T05:36:44;17.00;99.90
18229;DHT22;9239;50.932;3.142;2023-07-13T05:39:12;17.10;99.90
18229;DHT22;9239;50.932;3.142;2023-07-13T05:41:39;17.10;99.90
18229;DHT22;9239;50.932;3.142;2023-07-13T05:44:06;17.20;99.90
18229;DHT22;9239;50.932;3.142;2023-07-13T05:46:33;17.20;99.90
18229;DHT22;9239;50.932;3.142;2023-07-13T05:49:00;17.30;99.90
18229;DHT22;9239;50.932;3.142;2023-07-13T05:51:27;17.30;99.90
18229;DHT22;9239;50.932;3.142;2023-07-13T05:53:54;17.40;99.90
18229;DHT22;9239;50.932;3.142;2023-07-13T05:56:22;17.40;99.90
18229;DHT22;9239;50.932;3.142;2023-07-13T05:58:50;17.50;99.90
18229;DHT22;9239;50.932;3.142;2023-07-13T06:01:17;17.50;99.90
18229;DHT22;9239;50.932;3.142;2023-07-13T06:03:46;17.60;99.90
18229;DHT22;9239;50.932;3.142;2023-07-13T06:06:13;17.70;99.90
18229;DHT22;9239;50.932;3.142;2023-07-13T06:08:40;17.70;99.90
18229;DHT22;9239;50.932;3.142;2023-07-13T06:11:09;17.80;99.90
18229;DHT22;9239;50.932;3.142;2023-07-13T06:13:39;17.80;99.90
18229;DHT22;9239;50.932;3.142;2023-07-13T06:16:06;17.90;99.90
18229;DHT22;9239;50.932;3.142;2023-07-13T06:18:35;18.00;99.90
18229;DHT22;9239;50.932;3.142;2023-07-13T06:21:06;18.00;99.90
18229;DHT22;9239;50.932;3.142;2023-07-13T06:23:34;18.10;99.90
18229;DHT22;9239;50.932;3.142;2023-07-13T06:26:01;18.10;99.90
18229;DHT22;9239;50.932;3.142;2023-07-13T06:28:28;18.10;99.90
18229;DHT22;9239;50.932;3.142;2023-07-13T06:30:59;18.20;99.90
18229;DHT22;9239;50.932;3.142;2023-07-13T06:33:26;18.30;99.90
18229;DHT22;9239;50.932;3.142;2023-07-13T06:35:53;18.30;99.90
18229;DHT22;9239;50.932;3.142;2023-07-13T06:38:20;18.40;99.90
18229;DHT22;9239;50.932;3.142;2023-07-13T06:40:47;18.40;99.90
18229;DHT22;9239;50.932;3.142;2023-07-13T06:43:14;18.40;99.90
18229;DHT22;9239;50.932;3.142;2023-07-13T06:45:44;18.50;99.90
18229;DHT22;9239;50.932;3.142;2023-07-13T06:48:14;18.60;99.90
18229;DHT22;9239;50.932;3.142;2023-07-13T06:50:41;18.70;99.90
18229;DHT22;9239;50.932;3.142;2023-07-13T06:53:08;18.70;99.90
18229;DHT22;9239;50.932;3.142;2023-07-13T06:55:35;18.80;99.90
18229;DHT22;9239;50.932;3.142;2023-07-13T06:58:02;18.80;99.90
18229;DHT22;9239;50.932;3.142;2023-07-13T07:00:29;18.90;99.90
18229;DHT22;9239;50.932;3.142;2023-07-13T07:02:56;19.00;99.90
18229;DHT22;9239;50.932;3.142;2023-07-13T07:05:25;19.10;99.90
18229;DHT22;9239;50.932;3.142;2023-07-13T07:07:53;19.20;99.90
18229;DHT22;9239;50.932;3.142;2023-07-13T07:10:20;19.20;99.90
18229;DHT22;9239;50.932;3.142;2023-07-13T07:12:47;19.30;99.90
18229;DHT22;9239;50.932;3.142;2023-07-13T07:15:14;19.30;99.90
18229;DHT22;9239;50.932;3.142;2023-07-13T07:17:41;19.40;99.90
18229;DHT22;9239;50.932;3.142;2023-07-13T07:20:10;19.30;99.90
18229;DHT22;9239;50.932;3.142;2023-07-13T07:22:39;19.30;99.90
18229;DHT22;9239;50.932;3.142;2023-07-13T07:25:06;19.30;99.90
18229;DHT22;9239;50.932;3.142;2023-07-13T07:27:33;19.50;99.90
18229;DHT22;9239;50.932;3.142;2023-07-13T07:30:01;19.50;99.90
18229;DHT22;9239;50.932;3.142;2023-07-13T07:32:29;19.60;99.90
18229;DHT22;9239;50.932;3.142;2023-07-13T07:34:56;19.60;99.90
18229;DHT22;9239;50.932;3.142;2023-07-13T07:37:23;19.60;99.90
18229;DHT22;9239;50.932;3.142;2023-07-13T07:39:52;19.60;99.90
18229;DHT22;9239;50.932;3.142;2023-07-13T07:42:19;19.60;99.90
18229;DHT22;9239;50.932;3.142;2023-07-13T07:44:46;19.70;99.90
18229;DHT22;9239;50.932;3.142;2023-07-13T07:47:12;19.70;99.90
18229;DHT22;9239;50.932;3.142;2023-07-13T07:49:40;19.80;99.90
18229;DHT22;9239;50.932;3.142;2023-07-13T07:52:07;19.80;99.90
18229;DHT22;9239;50.932;3.142;2023-07-13T07:54:34;19.80;99.90
18229;DHT22;9239;50.932;3.142;2023-07-13T07:57:03;19.80;99.90
18229;DHT22;9239;50.932;3.142;2023-07-13T07:59:30;19.90;99.90
18229;DHT22;9239;50.932;3.142;2023-07-13T08:01:57;19.90;99.90
18229;DHT22;9239;50.932;3.142;2023-07-13T08:04:24;19.90;99.90
18229;DHT22;9239;50.932;3.142;2023-07-13T08:06:51;19.90;99.90
18229;DHT22;9239;50.932;3.142;2023-07-13T08:09:18;19.90;99.90
18229;DHT22;9239;50.932;3.142;2023-07-13T08:11:45;19.90;99.90
18229;DHT22;9239;50.932;3.142;2023-07-13T08:14:13;19.90;99.90
18229;DHT22;9239;50.932;3.142;2023-07-13T08:16:40;19.80;99.90
18229;DHT22;9239;50.932;3.142;2023-07-13T08:19:07;20.00;99.90
18229;DHT22;9239;50.932;3.142;2023-07-13T08:21:34;20.10;99.90
18229;DHT22;9239;50.932;3.142;2023-07-13T08:24:02;20.20;99.90
18229;DHT22;9239;50.932;3.142;2023-07-13T08:26:30;20.30;99.90
18229;DHT22;9239;50.932;3.142;2023-07-13T08:28:56;20.40;99.90
18229;DHT22;9239;50.932;3.142;2023-07-13T08:31:25;20.50;99.90
18229;DHT22;9239;50.932;3.142;2023-07-13T08:33:52;20.70;99.90
18229;DHT22;9239;50.932;3.142;2023-07-13T08:36:19;20.70;99.90
18229;DHT22;9239;50.932;3.142;2023-07-13T08:38:46;20.80;99.90
18229;DHT22;9239;50.932;3.142;2023-07-13T08:41:15;20.90;99.90
18229;DHT22;9239;50.932;3.142;2023-07-13T08:43:45;21.00;99.90
18229;DHT22;9239;50.932;3.142;2023-07-13T08:46:17;21.20;99.90
18229;DHT22;9239;50.932;3.142;2023-07-13T08:48:50;21.30;99.90
18229;DHT22;9239;50.932;3.142;2023-07-13T08:51:30;21.30;99.90
18229;DHT22;9239;50.932;3.142;2023-07-13T08:54:01;21.40;99.90
18229;DHT22;9239;50.932;3.142;2023-07-13T08:56:29;21.40;99.90
18229;DHT22;9239;50.932;3.142;2023-07-13T08:59:00;21.40;99.90
18229;DHT22;9239;50.932;3.142;2023-07-13T09:01:33;21.40;99.90
18229;DHT22;9239;50.932;3.142;2023-07-13T09:04:14;21.30;99.90
18229;DHT22;9239;50.932;3.142;2023-07-13T09:06:47;21.10;99.90
18229;DHT22;9239;50.932;3.142;2023-07-13T09:09:26;21.10;99.90
18229;DHT22;9239;50.932;3.142;2023-07-13T09:12:04;21.10;99.90
18229;DHT22;9239;50.932;3.142;2023-07-13T09:14:42;21.10;99.90
18229;DHT22;9239;50.932;3.142;2023-07-13T09:17:17;21.30;99.90
18229;DHT22;9239;50.932;3.142;2023-07-13T09:19:53;21.20;99.90
18229;DHT22;9239;50.932;3.142;2023-07-13T09:22:22;21.30;99.90
18229;DHT22;9239;50.932;3.142;2023-07-13T09:25:00;21.30;99.90
18229;DHT22;9239;50.932;3.142;2023-07-13T09:27:33;21.30;99.90
18229;DHT22;9239;50.932;3.142;2023-07-13T09:30:21;21.50;99.90
18229;DHT22;9239;50.932;3.142;2023-07-13T09:32:52;21.60;99.90
18229;DHT22;9239;50.932;3.142;2023-07-13T09:35:25;21.70;99.90
18229;DHT22;9239;50.932;3.142;2023-07-13T09:37:58;21.70;99.90
18229;DHT22;9239;50.932;3.142;2023-07-13T09:40:30;21.80;99.90
18229;DHT22;9239;50.932;3.142;2023-07-13T09:43:00;22.00;99.90
18229;DHT22;9239;50.932;3.142;2023-07-13T09:45:30;22.10;99.90
18229;DHT22;9239;50.932;3.142;2023-07-13T09:48:04;22.20;99.90
18229;DHT22;9239;50.932;3.142;2023-07-13T09:50:35;22.20;99.90
18229;DHT22;9239;50.932;3.142;2023-07-13T09:53:03;22.10;99.90
18229;DHT22;9239;50.932;3.142;2023-07-13T09:55:31;21.90;99.90
18229;DHT22;9239;50.932;3.142;2023-07-13T09:58:03;21.80;99.90
18229;DHT22;9239;50.932;3.142;2023-07-13T10:00:31;21.40;99.90
18229;DHT22;9239;50.932;3.142;2023-07-13T10:03:00;20.50;99.90
18229;DHT22;9239;50.932;3.142;2023-07-13T10:05:39;19.70;99.90
18229;DHT22;9239;50.932;3.142;2023-07-13T10:08:09;19.10;99.90
18229;DHT22;9239;50.932;3.142;2023-07-13T10:10:41;18.90;99.90
18229;DHT22;9239;50.932;3.142;2023-07-13T10:13:26;18.70;99.90
18229;DHT22;9239;50.932;3.142;2023-07-13T10:15:54;18.70;99.90
18229;DHT22;9239;50.932;3.142;2023-07-13T10:18:22;18.60;99.90
18229;DHT22;9239;50.932;3.142;2023-07-13T10:20:54;18.50;99.90
18229;DHT22;9239;50.932;3.142;2023-07-13T10:23:31;18.60;99.90
18229;DHT22;9239;50.932;3.142;2023-07-13T10:25:59;18.70;99.90
18229;DHT22;9239;50.932;3.142;2023-07-13T10:28:30;18.90;99.90
18229;DHT22;9239;50.932;3.142;2023-07-13T10:30:59;19.00;99.90
18229;DHT22;9239;50.932;3.142;2023-07-13T10:33:28;19.20;99.90
18229;DHT22;9239;50.932;3.142;2023-07-13T10:36:01;19.30;99.90
18229;DHT22;9239;50.932;3.142;2023-07-13T10:38:30;19.50;99.90
18229;DHT22;9239;50.932;3.142;2023-07-13T10:41:02;19.80;99.90
18229;DHT22;9239;50.932;3.142;2023-07-13T10:43:34;20.00;99.90
18229;DHT22;9239;50.932;3.142;2023-07-13T10:46:04;20.20;99.90
18229;DHT22;9239;50.932;3.142;2023-07-13T10:48:33;20.40;99.90
18229;DHT22;9239;50.932;3.142;2023-07-13T10:51:05;20.60;99.90
18229;DHT22;9239;50.932;3.142;2023-07-13T10:53:34;20.70;99.90
18229;DHT22;9239;50.932;3.142;2023-07-13T10:56:03;21.00;99.90
18229;DHT22;9239;50.932;3.142;2023-07-13T10:58:35;21.20;99.90
18229;DHT22;9239;50.932;3.142;2023-07-13T11:01:07;21.40;99.90
18229;DHT22;9239;50.932;3.142;2023-07-13T11:03:38;21.50;99.90
18229;DHT22;9239;50.932;3.142;2023-07-13T11:06:12;21.50;99.90
18229;DHT22;9239;50.932;3.142;2023-07-13T11:08:52;21.50;99.90
18229;DHT22;9239;50.932;3.142;2023-07-13T11:11:36;21.40;99.90
18229;DHT22;9239;50.932;3.142;2023-07-13T11:14:05;21.20;99.90
18229;DHT22;9239;50.932;3.142;2023-07-13T11:16:53;21.20;99.90
18229;DHT22;9239;50.932;3.142;2023-07-13T11:19:37;21.00;99.90
18229;DHT22;9239;50.932;3.142;2023-07-13T11:22:20;21.00;99.90
18229;DHT22;9239;50.932;3.142;2023-07-13T11:24:57;21.10;99.90
18229;DHT22;9239;50.932;3.142;2023-07-13T11:27:35;21.40;99.90
18229;DHT22;9239;50.932;3.142;2023-07-13T11:30:31;21.50;99.90
18229;DHT22;9239;50.932;3.142;2023-07-13T11:33:12;21.60;99.90
18229;DHT22;9239;50.932;3.142;2023-07-13T11:35:48;21.80;99.90
18229;DHT22;9239;50.932;3.142;2023-07-13T11:38:18;21.90;99.90
18229;DHT22;9239;50.932;3.142;2023-07-13T11:40:47;22.10;99.90
18229;DHT22;9239;50.932;3.142;2023-07-13T11:43:16;22.10;99.90
18229;DHT22;9239;50.932;3.142;2023-07-13T11:45:43;22.10;99.90
18229;DHT22;9239;50.932;3.142;2023-07-13T11:48:20;22.10;99.90
18229;DHT22;9239;50.932;3.142;2023-07-13T11:50:53;22.00;99.90
18229;DHT22;9239;50.932;3.142;2023-07-13T11:53:22;22.00;99.90
18229;DHT22;9239;50.932;3.142;2023-07-13T11:55:50;21.90;99.90
18229;DHT22;9239;50.932;3.142;2023-07-13T11:58:23;22.00;99.90
18229;DHT22;9239;50.932;3.142;2023-07-13T12:00:51;22.10;99.90
18229;DHT22;9239;50.932;3.142;2023-07-13T12:03:22;22.20;99.90
18229;DHT22;9239;50.932;3.142;2023-07-13T12:05:58;22.30;99.90
18229;DHT22;9239;50.932;3.142;2023-07-13T12:08:27;22.40;99.90
18229;DHT22;9239;50.932;3.142;2023-07-13T12:11:03;22.50;99.90
18229;DHT22;9239;50.932;3.142;2023-07-13T12:13:36;22.60;99.90
18229;DHT22;9239;50.932;3.142;2023-07-13T12:16:12;22.70;99.90
18229;DHT22;9239;50.932;3.142;2023-07-13T12:18:43;22.80;99.90
18229;DHT22;9239;50.932;3.142;2023-07-13T12:21:17;22.80;99.90
18229;DHT22;9239;50.932;3.142;2023-07-13T12:23:48;22.60;99.90
18229;DHT22;9239;50.932;3.142;2023-07-13T12:26:17;22.50;99.90
18229;DHT22;9239;50.932;3.142;2023-07-13T12:28:47;22.30;99.90
18229;DHT22;9239;50.932;3.142;2023-07-13T12:31:26;22.40;99.90
18229;DHT22;9239;50.932;3.142;2023-07-13T12:33:59;22.70;99.90
18229;DHT22;9239;50.932;3.142;2023-07-13T12:36:26;22.90;99.90
18229;DHT22;9239;50.932;3.142;2023-07-13T12:38:57;23.10;99.90
18229;DHT22;9239;50.932;3.142;2023-07-13T12:41:29;23.30;99.90
18229;DHT22;9239;50.932;3.142;2023-07-13T12:43:56;23.30;99.90
18229;DHT22;9239;50.932;3.142;2023-07-13T12:46:24;23.50;99.90
18229;DHT22;9239;50.932;3.142;2023-07-13T12:48:54;23.60;99.90
18229;DHT22;9239;50.932;3.142;2023-07-13T12:51:25;23.40;99.90
18229;DHT22;9239;50.932;3.142;2023-07-13T12:53:58;23.40;99.90
18229;DHT22;9239;50.932;3.142;2023-07-13T12:56:27;23.40;99.90
18229;DHT22;9239;50.932;3.142;2023-07-13T12:58:58;23.40;99.90
18229;DHT22;9239;50.932;3.142;2023-07-13T13:01:28;23.40;99.90
18229;DHT22;9239;50.932;3.142;2023-07-13T13:03:55;23.40;99.90
18229;DHT22;9239;50.932;3.142;2023-07-13T13:06:25;23.40;99.90
18229;DHT22;9239;50.932;3.142;2023-07-13T13:08:54;23.30;99.90
18229;DHT22;9239;50.932;3.142;2023-07-13T13:11:23;23.20;99.90
18229;DHT22;9239;50.932;3.142;2023-07-13T13:13:50;23.00;99.90
18229;DHT22;9239;50.932;3.142;2023-07-13T13:16:21;22.90;99.90
18229;DHT22;9239;50.932;3.142;2023-07-13T13:18:49;22.90;99.90
18229;DHT22;9239;50.932;3.142;2023-07-13T13:21:17;23.00;99.90
18229;DHT22;9239;50.932;3.142;2023-07-13T13:23:46;23.20;99.90
18229;DHT22;9239;50.932;3.142;2023-07-13T13:26:15;23.30;99.90
18229;DHT22;9239;50.932;3.142;2023-07-13T13:28:43;23.30;99.90
18229;DHT22;9239;50.932;3.142;2023-07-13T13:31:11;23.60;99.90
18229;DHT22;9239;50.932;3.142;2023-07-13T13:33:40;23.70;99.90
18229;DHT22;9239;50.932;3.142;2023-07-13T13:36:15;23.70;99.90
18229;DHT22;9239;50.932;3.142;2023-07-13T13:38:43;23.70;99.90
18229;DHT22;9239;50.932;3.142;2023-07-13T13:41:13;23.50;99.90
18229;DHT22;9239;50.932;3.142;2023-07-13T13:43:41;23.20;99.90
18229;DHT22;9239;50.932;3.142;2023-07-13T13:46:16;23.20;99.90
18229;DHT22;9239;50.932;3.142;2023-07-13T13:48:44;23.30;99.90
18229;DHT22;9239;50.932;3.142;2023-07-13T13:51:16;23.30;99.90
18229;DHT22;9239;50.932;3.142;2023-07-13T13:53:43;23.40;99.90
18229;DHT22;9239;50.932;3.142;2023-07-13T13:56:12;23.60;99.90
18229;DHT22;9239;50.932;3.142;2023-07-13T13:58:39;23.70;99.90
18229;DHT22;9239;50.932;3.142;2023-07-13T14:01:12;23.80;99.90
18229;DHT22;9239;50.932;3.142;2023-07-13T14:03:40;23.60;99.90
18229;DHT22;9239;50.932;3.142;2023-07-13T14:06:10;23.60;99.90
18229;DHT22;9239;50.932;3.142;2023-07-13T14:08:37;23.80;99.90
18229;DHT22;9239;50.932;3.142;2023-07-13T14:11:05;23.70;99.90
18229;DHT22;9239;50.932;3.142;2023-07-13T14:13:38;23.50;99.90
18229;DHT22;9239;50.932;3.142;2023-07-13T14:16:10;23.50;99.90
18229;DHT22;9239;50.932;3.142;2023-07-13T14:18:37;23.40;99.90
18229;DHT22;9239;50.932;3.142;2023-07-13T14:21:11;23.40;99.90
18229;DHT22;9239;50.932;3.142;2023-07-13T14:23:39;23.50;99.90
18229;DHT22;9239;50.932;3.142;2023-07-13T14:26:10;23.60;99.90
18229;DHT22;9239;50.932;3.142;2023-07-13T14:28:42;23.70;99.90
18229;DHT22;9239;50.932;3.142;2023-07-13T14:31:09;23.60;99.90
18229;DHT22;9239;50.932;3.142;2023-07-13T14:33:36;23.70;99.90
18229;DHT22;9239;50.932;3.142;2023-07-13T14:36:22;23.80;99.90
18229;DHT22;9239;50.932;3.142;2023-07-13T14:38:50;24.10;99.90
18229;DHT22;9239;50.932;3.142;2023-07-13T14:41:17;24.30;99.90
18229;DHT22;9239;50.932;3.142;2023-07-13T14:43:45;24.20;99.90
18229;DHT22;9239;50.932;3.142;2023-07-13T14:46:21;24.10;99.90
18229;DHT22;9239;50.932;3.142;2023-07-13T14:48:51;24.10;99.90
18229;DHT22;9239;50.932;3.142;2023-07-13T14:51:18;23.90;99.90
18229;DHT22;9239;50.932;3.142;2023-07-13T14:53:45;24.00;99.90
18229;DHT22;9239;50.932;3.142;2023-07-13T14:56:12;24.10;99.90
18229;DHT22;9239;50.932;3.142;2023-07-13T14:58:40;24.00;99.90
18229;DHT22;9239;50.932;3.142;2023-07-13T15:03:43;24.10;99.90
18229;DHT22;9239;50.932;3.142;2023-07-13T15:06:12;24.20;99.90
18229;DHT22;9239;50.932;3.142;2023-07-13T15:08:39;24.30;99.90
18229;DHT22;9239;50.932;3.142;2023-07-13T15:11:07;24.20;99.90
18229;DHT22;9239;50.932;3.142;2023-07-13T15:13:38;24.00;99.90
18229;DHT22;9239;50.932;3.142;2023-07-13T15:16:13;23.70;99.90
18229;DHT22;9239;50.932;3.142;2023-07-13T15:18:44;23.50;99.90
18229;DHT22;9239;50.932;3.142;2023-07-13T15:21:14;23.40;99.90
18229;DHT22;9239;50.932;3.142;2023-07-13T15:23:44;23.60;99.90
18229;DHT22;9239;50.932;3.142;2023-07-13T15:26:12;23.60;99.90
18229;DHT22;9239;50.932;3.142;2023-07-13T15:28:41;23.80;99.90
18229;DHT22;9239;50.932;3.142;2023-07-13T15:31:19;23.90;99.90
18229;DHT22;9239;50.932;3.142;2023-07-13T15:33:49;24.00;99.90
18229;DHT22;9239;50.932;3.142;2023-07-13T15:36:17;24.10;99.90
18229;DHT22;9239;50.932;3.142;2023-07-13T15:38:45;24.10;99.90
18229;DHT22;9239;50.932;3.142;2023-07-13T15:41:22;24.20;99.90
18229;DHT22;9239;50.932;3.142;2023-07-13T15:43:49;24.30;99.90
18229;DHT22;9239;50.932;3.142;2023-07-13T15:46:18;24.40;99.90
18229;DHT22;9239;50.932;3.142;2023-07-13T15:48:48;24.60;99.90
18229;DHT22;9239;50.932;3.142;2023-07-13T15:51:20;24.80;99.90
18229;DHT22;9239;50.932;3.142;2023-07-13T15:53:48;24.70;99.90
18229;DHT22;9239;50.932;3.142;2023-07-13T15:56:20;24.50;99.90
18229;DHT22;9239;50.932;3.142;2023-07-13T15:58:49;24.30;99.90
18229;DHT22;9239;50.932;3.142;2023-07-13T16:01:16;24.20;99.90
18229;DHT22;9239;50.932;3.142;2023-07-13T16:03:44;24.30;99.90